Tropical Cyclones
[Index]
Main Index Home Page Stock Weather Photos Extreme Storms Discussion Storm News and Storm Chasing Reports Tropical Cyclones / Hurricanes / Typhoons Weather Data and Links Wild Fires / Bushfires Weather Observation Techniques Weather Picture Catalogue Tornado Pictures and Reports Stock Video Footage and DVDs for sale
Season 2007-2008 Tropical Cyclone 200817 Track Map
Season 2007-2008 Summaries (Operational Data): [AU] [SIO] [SPAC] [SH]
<<- Previous TC | 2007-2008 Season | Next TC ->>

click for intensity scale information  Lat/long Grid: Show Hide

 Date Labels: Show Hide

Operational Tropical Cyclone Data : JTWC Advisories

Name: 200817
Number: 0817

04 Feb 2008 00:00 UTC to 10 Feb 2008 00:00 UTC

    date/time    lat    long     hPa   cat  kts
2008-02-04 00   15.4   101.5    1000         25          
2008-02-04 06   15.8   101.1     996         30          
2008-02-04 12   16.6   101.6     996         30          
2008-02-04 18   16.2   101.3     996         30          
2008-02-04 22   16.4   101.1     998         25          
2008-02-05 14   15.7   102.2                             
2008-02-05 20   15.9   102.5                             
2008-02-06 02   15.8   103.4                             
2008-02-06 08   15.9   104.0                             
2008-02-06 14   16.0   104.5                             
2008-02-07 00   16.2   105.1                             
2008-02-07 06   16.1   105.5     992         30          
2008-02-07 12   16.3   106.1     992         30          
2008-02-07 18   16.4   106.5     992         30          
2008-02-08 00   17.0   106.7     992         30          
2008-02-08 06   17.0   107.2     992         30          
2008-02-08 12   17.0   107.8     992         30          
2008-02-08 18   16.8   108.2     992         30          
2008-02-09 00   17.4   108.1     990         30          
2008-02-09 06   17.1   108.3     992         30          
2008-02-09 12   16.7   108.3     992         30          
2008-02-09 18   16.6   108.5     992         30          
2008-02-10 00   15.6   109.2     994         25          
Winds are 10-min average.

Tropical cyclone tracks developed by Michael Bath using operational warnings and advisories and Google Maps.


[Australian Severe Weather index] [Copyright Notice] [Email Contacts] [Search This Site] [Privacy Policy]
Document: tropical_cyclone_200817.htm Updated: 2 May 2017